LIRQ/FLR METAR and TAF weather

Enter ICAO airport designator
Station Type Date Time Source
LIRQ METAR 2019/02/17 15:20 UTC NOAA

LIRQ 171520Z 24005KT 190V270 CAVOK 16/06 Q1027


Station Type Date Time Source
LIRQ Decoded METAR 2019/02/17 15:20 UTC NOAA

Firenze / Peretola, Italy (LIRQ) 43-48N 011-12E 38M
Feb 17, 2019 - 10:20 AM EST / 2019.02.17 1520 UTC
Wind: from the WSW (240 degrees) at 6 MPH (5 KT) (direction variable):0
Visibility: greater than 7 mile(s):0
Temperature: 60 F (16 C)
Dew Point: 42 F (6 C)
Relative Humidity: 51%
Pressure (altimeter): 30.33 in. Hg (1027 hPa)
ob: LIRQ 171520Z 24005KT 190V270 CAVOK 16/06 Q1027
cycle: 15

Station Type Date Time Source
LIRQ TAF 2019/02/17 12:21 UTC NOAA

TAF LIRQ 171100Z 1712/1812 VRB05KT CAVOK
BECMG 1721/1723 4000 BR
TEMPO 1800/1806 1500
BECMG 1808/1810 9999


Example: see airport list